Time;durP1;ratioP1;P1;durP2;ratioP2;P2;SDS_P1;SDS_P2;PMS_P1;PMS_P2;Temp;Humidity;BMP_temperature;BMP_pressure;BME280_temperature;BME280_humidity;BME280_pressure;Samples;Min_cycle;Max_cycle;Signal;HPM_P1;HPM_P2
2022/10/15 00:01:38;;;;;;;26.52;18.95;;;13.70;99.90;;;;;;5030757;28;20406;-72
2022/10/15 00:04:04;;;;;;;32.38;20.83;;;13.60;99.90;;;;;;5030826;28;20380;-71
2022/10/15 00:06:29;;;;;;;29.80;18.83;;;13.60;99.90;;;;;;5031050;28;20449;-72
2022/10/15 00:08:55;;;;;;;26.23;19.53;;;13.50;99.90;;;;;;5030846;28;20782;-71
2022/10/15 00:11:24;;;;;;;32.10;20.73;;;13.50;99.90;;;;;;5031333;28;20379;-72
2022/10/15 00:13:53;;;;;;;32.78;20.95;;;13.50;99.90;;;;;;5031089;28;20475;-72
2022/10/15 00:16:21;;;;;;;32.08;21.65;;;13.50;99.90;;;;;;5031050;28;20441;-72
2022/10/15 00:18:47;;;;;;;42.88;26.10;;;13.40;99.90;;;;;;5033204;28;20383;-72
2022/10/15 00:21:15;;;;;;;34.03;22.97;;;13.40;99.90;;;;;;5030714;28;20410;-73
2022/10/15 00:23:42;;;;;;;30.45;20.83;;;13.30;99.90;;;;;;5031349;28;20449;-73
2022/10/15 00:26:15;;;;;;;31.23;22.20;;;13.30;99.90;;;;;;5032528;28;20426;-73
2022/10/15 00:28:41;;;;;;;34.17;22.45;;;13.30;99.90;;;;;;5031776;28;20833;-72
2022/10/15 00:31:10;;;;;;;29.73;21.00;;;13.20;99.90;;;;;;5031923;28;20498;-73
2022/10/15 00:33:36;;;;;;;24.98;19.00;;;13.30;99.90;;;;;;5032775;28;20387;-73
2022/10/15 00:36:05;;;;;;;25.80;18.70;;;13.20;99.90;;;;;;5034566;28;20760;-73
2022/10/15 00:38:30;;;;;;;29.63;20.27;;;13.20;99.90;;;;;;5034231;28;20533;-73
2022/10/15 00:40:57;;;;;;;28.92;20.30;;;13.20;99.90;;;;;;5033924;28;20478;-73
2022/10/15 00:43:46;;;;;;;27.80;20.10;;;13.10;99.90;;;;;;5033939;28;20559;-72
2022/10/15 00:46:16;;;;;;;32.03;20.88;;;13.00;99.90;;;;;;5033691;28;20868;-72
2022/10/15 00:48:43;;;;;;;30.40;21.85;;;13.00;99.90;;;;;;5033654;28;20379;-72
2022/10/15 00:51:09;;;;;;;31.20;21.95;;;13.00;99.90;;;;;;5033787;28;20422;-72
2022/10/15 00:53:34;;;;;;;31.80;20.10;;;13.00;99.90;;;;;;5033934;28;20425;-72
2022/10/15 00:56:00;;;;;;;32.60;20.77;;;12.90;99.90;;;;;;5033744;28;20514;-72
2022/10/15 00:58:30;;;;;;;33.50;21.40;;;12.90;99.90;;;;;;5034164;28;20390;-72
2022/10/15 01:00:56;;;;;;;29.58;19.83;;;12.80;99.90;;;;;;5033854;28;20403;-72
2022/10/15 01:03:23;;;;;;;27.48;19.38;;;12.80;99.90;;;;;;5034053;28;20402;-72
2022/10/15 01:05:50;;;;;;;27.35;18.50;;;12.90;99.90;;;;;;5034117;28;20394;-73
2022/10/15 01:08:16;;;;;;;28.10;19.63;;;12.80;99.90;;;;;;5033571;28;20387;-71
2022/10/15 01:11:22;;;;;;;27.17;18.27;;;12.80;99.90;;;;;;5033949;28;20742;-73
2022/10/15 01:14:23;;;;;;;31.58;20.40;;;12.80;99.90;;;;;;5033606;28;20481;-73
2022/10/15 01:17:03;;;;;;;27.20;19.27;;;12.70;99.90;;;;;;5033087;28;20947;-73
2022/10/15 01:19:47;;;;;;;29.58;19.40;;;12.60;99.90;;;;;;5033452;28;20375;-73
2022/10/15 01:22:22;;;;;;;29.02;20.23;;;12.60;99.90;;;;;;5032947;28;20398;-73
2022/10/15 01:25:09;;;;;;;29.70;20.10;;;12.60;99.90;;;;;;5033146;28;20466;-72
2022/10/15 01:27:42;;;;;;;29.40;18.40;;;12.50;99.90;;;;;;5033271;28;20457;-72
2022/10/15 01:30:23;;;;;;;28.97;19.40;;;12.50;99.90;;;;;;5032252;28;20457;-73
2022/10/15 01:32:58;;;;;;;25.83;18.83;;;12.40;99.90;;;;;;5033560;28;20383;-73
2022/10/15 01:35:43;;;;;;;30.48;20.40;;;12.40;99.90;;;;;;5033053;28;20445;-72
2022/10/15 01:38:23;;;;;;;32.00;19.63;;;12.50;99.90;;;;;;5033235;28;20391;-72
2022/10/15 01:40:50;;;;;;;26.10;19.15;;;12.40;99.90;;;;;;5033183;28;20430;-72
2022/10/15 01:43:37;;;;;;;30.83;20.70;;;12.30;99.90;;;;;;5032947;28;20409;-72
2022/10/15 01:46:08;;;;;;;34.17;22.80;;;12.30;99.90;;;;;;5032757;28;20383;-72
2022/10/15 01:48:36;;;;;;;34.45;21.80;;;12.30;99.90;;;;;;5032864;28;20387;-72
2022/10/15 01:51:05;;;;;;;28.77;20.65;;;12.30;99.90;;;;;;5032663;28;20391;-72
2022/10/15 01:53:33;;;;;;;27.45;20.13;;;12.30;99.90;;;;;;5032696;28;20437;-72
2022/10/15 01:56:14;;;;;;;29.27;20.35;;;12.40;99.90;;;;;;5033270;28;20387;-72
2022/10/15 01:58:43;;;;;;;28.88;20.88;;;12.50;99.90;;;;;;5032934;28;20393;-72
2022/10/15 02:01:08;;;;;;;33.70;21.77;;;12.40;99.90;;;;;;5032881;28;20801;-73
2022/10/15 02:03:47;;;;;;;32.97;20.10;;;12.40;99.90;;;;;;5033207;28;20481;-72
2022/10/15 02:06:23;;;;;;;32.60;19.05;;;12.50;99.90;;;;;;5033301;28;20379;-72
2022/10/15 02:09:14;;;;;;;26.52;18.63;;;12.40;99.90;;;;;;5033835;28;20379;-72
2022/10/15 02:12:09;;;;;;;26.73;18.40;;;12.30;99.90;;;;;;5033117;28;20387;-72
2022/10/15 02:15:29;;;;;;;28.23;19.92;;;12.30;99.90;;;;;;5032794;28;20445;-71
2022/10/15 02:18:08;;;;;;;28.65;19.58;;;12.40;99.90;;;;;;5023595;28;20399;-73
2022/10/15 02:20:43;;;;;;;32.50;20.80;;;12.50;99.90;;;;;;5038239;28;20915;-73
2022/10/15 02:23:25;;;;;;;32.90;22.65;;;12.50;99.90;;;;;;5036234;28;20406;-72
2022/10/15 02:25:53;;;;;;;29.98;20.38;;;12.60;99.90;;;;;;5036163;28;20483;-72
2022/10/15 02:28:22;;;;;;;28.00;19.70;;;12.80;99.90;;;;;;5034140;28;20386;-72
2022/10/15 02:30:51;;;;;;;30.48;20.45;;;12.80;99.90;;;;;;5032356;28;20749;-72
2022/10/15 02:33:18;;;;;;;29.77;21.33;;;12.80;99.90;;;;;;5031985;28;20462;-72
2022/10/15 02:35:44;;;;;;;35.17;23.20;;;12.80;99.90;;;;;;5031996;28;20418;-72
2022/10/15 02:38:13;;;;;;;38.05;24.13;;;12.90;99.90;;;;;;5031842;28;20394;-72
2022/10/15 02:40:41;;;;;;;37.33;26.50;;;12.90;99.90;;;;;;5031775;28;20860;-73
2022/10/15 02:43:08;;;;;;;40.13;28.35;;;13.00;99.90;;;;;;5031483;28;20399;-71
2022/10/15 02:45:35;;;;;;;43.33;27.42;;;13.20;99.90;;;;;;5031754;28;20383;-71
2022/10/15 02:48:00;;;;;;;37.35;25.85;;;13.20;99.90;;;;;;5031719;28;20387;-72
2022/10/15 02:50:26;;;;;;;37.40;24.97;;;13.10;99.90;;;;;;5031760;28;20470;-72
2022/10/15 02:52:51;;;;;;;32.73;23.57;;;13.10;99.90;;;;;;5031771;28;20852;-70
2022/10/15 02:55:17;;;;;;;35.10;24.40;;;13.10;99.90;;;;;;5030822;28;20803;-72
2022/10/15 02:57:42;;;;;;;34.75;23.90;;;13.30;99.90;;;;;;5031695;28;20395;-73
2022/10/15 03:00:09;;;;;;;38.22;26.38;;;13.20;99.90;;;;;;5031574;28;20393;-72
2022/10/15 03:02:34;;;;;;;41.08;27.88;;;13.20;99.90;;;;;;5031155;28;20407;-72
2022/10/15 03:05:00;;;;;;;43.85;27.77;;;13.10;99.90;;;;;;5031275;28;20390;-72
2022/10/15 03:07:25;;;;;;;42.55;29.88;;;13.20;99.90;;;;;;5031411;28;20371;-72
2022/10/15 03:09:51;;;;;;;41.03;29.27;;;13.20;99.90;;;;;;5031121;28;20387;-72
2022/10/15 03:12:16;;;;;;;48.33;30.97;;;13.10;99.90;;;;;;5030907;28;20440;-72
2022/10/15 03:14:42;;;;;;;43.50;31.13;;;13.20;99.90;;;;;;5030985;28;20426;-72
2022/10/15 03:17:07;;;;;;;41.45;28.60;;;13.20;99.90;;;;;;5031466;28;20462;-72
2022/10/15 03:19:33;;;;;;;40.70;28.40;;;13.30;99.90;;;;;;5031252;28;20508;-72
2022/10/15 03:21:58;;;;;;;38.70;27.20;;;13.30;99.90;;;;;;5030984;28;20810;-72
2022/10/15 03:24:24;;;;;;;44.47;27.20;;;13.30;99.90;;;;;;5031083;28;21082;-72
2022/10/15 03:26:49;;;;;;;38.28;25.77;;;13.30;99.90;;;;;;5031063;28;20458;-73
2022/10/15 03:29:15;;;;;;;37.03;24.37;;;13.40;99.90;;;;;;5031461;28;20386;-73
2022/10/15 03:31:40;;;;;;;39.20;26.87;;;13.50;99.90;;;;;;5031310;28;20387;-72
2022/10/15 03:34:06;;;;;;;36.50;24.37;;;13.40;99.90;;;;;;5031423;28;20391;-70
2022/10/15 03:36:31;;;;;;;29.50;21.63;;;13.40;99.90;;;;;;5031144;28;20387;-71
2022/10/15 03:38:57;;;;;;;34.95;23.45;;;13.40;99.90;;;;;;5031248;28;20387;-72
2022/10/15 03:41:22;;;;;;;32.27;23.53;;;13.40;99.90;;;;;;5030780;28;20399;-71
2022/10/15 03:43:48;;;;;;;35.00;22.77;;;13.40;99.90;;;;;;5031257;28;20955;-71
2022/10/15 03:46:14;;;;;;;37.38;23.38;;;13.40;99.90;;;;;;5031108;28;20697;-73
2022/10/15 03:48:40;;;;;;;29.30;21.77;;;13.40;99.90;;;;;;5030974;28;20465;-71
2022/10/15 03:51:05;;;;;;;31.20;21.73;;;13.40;99.90;;;;;;5030198;28;20467;-71
2022/10/15 03:53:31;;;;;;;35.03;22.23;;;13.30;99.90;;;;;;5030865;28;20394;-72
2022/10/15 03:56:04;;;;;;;32.78;21.02;;;13.40;99.90;;;;;;5032726;28;20462;-72
2022/10/15 03:58:30;;;;;;;31.60;21.30;;;13.30;99.90;;;;;;5035633;28;20760;-72
2022/10/15 04:00:56;;;;;;;32.17;21.10;;;13.30;99.90;;;;;;5034773;28;20387;-72
2022/10/15 04:03:21;;;;;;;30.03;21.80;;;13.30;99.90;;;;;;5036004;28;20398;-71
2022/10/15 04:05:53;;;;;;;27.92;19.75;;;13.30;99.90;;;;;;5033893;28;20383;-73
2022/10/15 04:08:19;;;;;;;30.95;20.70;;;13.30;99.90;;;;;;5037611;28;20406;-72
2022/10/15 04:10:45;;;;;;;29.55;22.15;;;13.40;99.90;;;;;;5036984;28;20391;-72
2022/10/15 04:13:10;;;;;;;30.58;21.17;;;13.30;99.90;;;;;;5037835;28;20405;-70
2022/10/15 04:15:39;;;;;;;29.77;20.67;;;13.30;99.90;;;;;;5036132;28;20472;-70
2022/10/15 04:18:04;;;;;;;29.13;19.92;;;13.40;99.90;;;;;;5035213;28;20729;-72
2022/10/15 04:20:30;;;;;;;33.70;20.17;;;13.30;99.90;;;;;;5036540;28;20387;-72
2022/10/15 04:22:55;;;;;;;32.37;19.60;;;13.40;99.90;;;;;;5037230;28;20452;-72
2022/10/15 04:25:21;;;;;;;25.90;18.47;;;13.40;99.90;;;;;;5037632;28;20387;-72
2022/10/15 04:27:47;;;;;;;27.30;18.67;;;13.40;99.90;;;;;;5037110;28;20917;-71
2022/10/15 04:30:13;;;;;;;29.90;19.15;;;13.40;99.90;;;;;;5035894;28;20410;-71
2022/10/15 04:32:38;;;;;;;28.48;19.15;;;13.40;99.90;;;;;;5036283;28;20383;-71
2022/10/15 04:35:04;;;;;;;28.83;18.80;;;13.40;99.90;;;;;;5042600;28;20401;-71
2022/10/15 04:37:32;;;;;;;30.43;20.30;;;13.50;99.90;;;;;;5042763;28;20382;-72
2022/10/15 04:39:58;;;;;;;31.02;19.50;;;13.40;99.90;;;;;;5040497;28;20383;-73
2022/10/15 04:42:23;;;;;;;30.47;18.97;;;13.40;99.90;;;;;;5038350;28;20399;-73
2022/10/15 04:44:49;;;;;;;32.50;19.80;;;13.50;99.90;;;;;;5035885;28;20406;-73
2022/10/15 04:47:14;;;;;;;28.97;20.20;;;13.50;99.90;;;;;;5035476;28;20414;-72
2022/10/15 04:49:40;;;;;;;26.77;18.60;;;13.50;99.90;;;;;;5036681;28;20455;-71
2022/10/15 04:52:06;;;;;;;30.20;19.27;;;13.50;99.90;;;;;;5034630;28;20391;-72
2022/10/15 04:54:31;;;;;;;28.80;19.73;;;13.50;99.90;;;;;;5036537;28;20410;-72
2022/10/15 04:56:57;;;;;;;35.33;22.90;;;13.50;99.90;;;;;;5036036;28;20403;-72
2022/10/15 04:59:22;;;;;;;33.22;21.85;;;13.50;99.90;;;;;;5036307;28;20767;-71
2022/10/15 05:01:48;;;;;;;30.80;21.10;;;13.50;99.90;;;;;;5035861;28;20399;-71
2022/10/15 05:04:13;;;;;;;32.77;20.90;;;13.60;99.90;;;;;;5036244;28;20827;-72
2022/10/15 05:06:39;;;;;;;31.80;21.50;;;13.60;99.90;;;;;;5034757;28;20473;-72
2022/10/15 05:09:05;;;;;;;39.20;22.35;;;13.50;99.90;;;;;;5037724;28;20891;-72
2022/10/15 05:11:30;;;;;;;32.78;22.88;;;13.50;99.90;;;;;;5038347;28;20412;-73
2022/10/15 05:13:57;;;;;;;38.03;24.98;;;13.40;99.90;;;;;;5040189;28;20387;-72
2022/10/15 05:16:24;;;;;;;38.93;23.80;;;13.30;99.90;;;;;;5041049;28;20934;-73
2022/10/15 05:18:54;;;;;;;38.33;23.20;;;13.30;99.90;;;;;;5039189;28;20433;-73
2022/10/15 05:21:20;;;;;;;37.20;23.40;;;13.30;99.90;;;;;;5041957;28;20406;-73
2022/10/15 05:23:46;;;;;;;38.43;25.30;;;13.20;99.90;;;;;;5036821;28;20403;-72
2022/10/15 05:26:23;;;;;;;38.47;24.20;;;13.20;99.90;;;;;;5037330;28;20946;-72
2022/10/15 05:28:49;;;;;;;37.63;26.80;;;13.20;99.90;;;;;;5041669;28;20391;-76
2022/10/15 05:31:18;;;;;;;36.35;25.00;;;13.10;99.90;;;;;;5041855;28;20400;-72
2022/10/15 05:33:45;;;;;;;43.53;26.10;;;13.20;99.90;;;;;;5044215;28;20951;-73
2022/10/15 05:36:16;;;;;;;37.70;24.50;;;13.20;99.90;;;;;;5041484;28;20791;-74
2022/10/15 05:38:43;;;;;;;39.83;25.27;;;13.30;99.90;;;;;;5040080;28;20422;-72
2022/10/15 05:41:09;;;;;;;37.35;25.45;;;13.20;99.90;;;;;;5039999;28;20399;-73
2022/10/15 05:43:35;;;;;;;43.47;26.00;;;13.20;99.90;;;;;;5040428;28;20768;-72
2022/10/15 05:46:00;;;;;;;37.23;24.80;;;13.30;99.90;;;;;;5040087;28;20395;-73
2022/10/15 05:48:26;;;;;;;38.80;24.77;;;13.30;99.90;;;;;;5039848;28;20943;-73
2022/10/15 05:50:52;;;;;;;43.80;26.07;;;13.30;99.90;;;;;;5037879;28;20395;-72
2022/10/15 05:53:17;;;;;;;39.33;25.52;;;13.30;99.90;;;;;;5037246;28;20409;-72
2022/10/15 05:55:43;;;;;;;42.83;25.70;;;13.40;99.90;;;;;;5035234;28;20589;-73
2022/10/15 05:58:09;;;;;;;38.95;23.80;;;13.40;99.90;;;;;;5037037;28;20466;-73
2022/10/15 06:00:38;;;;;;;36.42;24.63;;;13.40;99.90;;;;;;5035839;28;20440;-73
2022/10/15 06:03:03;;;;;;;41.33;24.80;;;13.40;99.90;;;;;;5034430;28;20406;-73
2022/10/15 06:05:30;;;;;;;41.40;23.60;;;13.40;99.90;;;;;;5034771;28;20533;-72
2022/10/15 06:07:56;;;;;;;37.20;24.10;;;13.40;99.90;;;;;;5034608;28;20433;-72
2022/10/15 06:10:21;;;;;;;40.05;24.98;;;13.50;99.90;;;;;;5037947;28;20418;-72
2022/10/15 06:12:50;;;;;;;35.17;23.27;;;13.50;99.90;;;;;;5041686;28;20418;-72
2022/10/15 06:15:16;;;;;;;34.20;23.27;;;13.60;99.90;;;;;;5038514;28;20465;-72
2022/10/15 06:17:42;;;;;;;39.50;25.60;;;13.60;99.90;;;;;;5033709;28;20957;-73
2022/10/15 06:20:08;;;;;;;36.58;24.17;;;13.60;99.90;;;;;;5032442;28;20441;-74
2022/10/15 06:22:33;;;;;;;34.42;22.88;;;13.70;99.90;;;;;;5033770;28;20480;-73
2022/10/15 06:24:59;;;;;;;38.50;25.60;;;13.80;99.90;;;;;;5033609;28;20474;-73
2022/10/15 06:27:25;;;;;;;37.58;24.77;;;13.80;99.90;;;;;;5033742;28;20913;-76
2022/10/15 06:29:50;;;;;;;41.10;25.43;;;13.80;99.90;;;;;;5022914;28;20407;-73
2022/10/15 06:32:16;;;;;;;39.03;25.57;;;13.80;99.90;;;;;;5026543;28;20396;-71
2022/10/15 06:34:43;;;;;;;35.50;24.27;;;13.80;99.90;;;;;;5029830;28;20403;-73
2022/10/15 06:37:08;;;;;;;42.85;27.33;;;13.70;99.90;;;;;;5033001;28;20821;-71
2022/10/15 06:39:34;;;;;;;39.95;25.73;;;13.60;99.90;;;;;;5033419;28;20471;-73
2022/10/15 06:41:59;;;;;;;46.92;27.52;;;13.60;99.90;;;;;;5034054;28;20413;-72
2022/10/15 06:44:25;;;;;;;43.17;28.80;;;13.50;99.90;;;;;;5034723;28;20383;-73
2022/10/15 06:46:50;;;;;;;46.07;30.00;;;13.50;99.90;;;;;;5037826;28;20383;-72
2022/10/15 06:49:16;;;;;;;53.03;30.90;;;13.50;99.90;;;;;;5037994;28;20452;-71
2022/10/15 06:51:41;;;;;;;44.45;29.13;;;13.60;99.90;;;;;;5037142;28;20401;-74
2022/10/15 06:54:07;;;;;;;48.20;29.33;;;13.70;99.90;;;;;;5039400;28;20442;-72
2022/10/15 06:56:32;;;;;;;49.20;30.57;;;13.80;99.90;;;;;;5021741;28;20410;-74
2022/10/15 06:58:58;;;;;;;43.60;29.20;;;13.90;99.90;;;;;;5032822;28;20395;-71
2022/10/15 07:01:23;;;;;;;50.25;30.48;;;13.90;99.90;;;;;;5032235;28;20383;-73
2022/10/15 07:03:50;;;;;;;51.07;30.53;;;14.00;99.90;;;;;;5034171;28;20430;-70
2022/10/15 07:06:16;;;;;;;44.42;29.67;;;14.00;99.90;;;;;;5032586;28;20966;-70
2022/10/15 07:08:42;;;;;;;46.80;29.65;;;14.00;99.90;;;;;;5033906;28;20457;-72
2022/10/15 07:11:08;;;;;;;50.67;31.50;;;13.90;99.90;;;;;;5031446;28;20391;-72
2022/10/15 07:13:34;;;;;;;49.92;30.88;;;13.90;99.90;;;;;;5031756;28;20410;-72
2022/10/15 07:16:04;;;;;;;55.90;32.45;;;13.80;99.90;;;;;;5034725;28;20819;-71
2022/10/15 07:18:30;;;;;;;47.22;31.67;;;13.90;99.90;;;;;;5031881;28;20401;-70
2022/10/15 07:20:56;;;;;;;49.43;33.17;;;13.90;99.90;;;;;;5031229;28;20943;-72
2022/10/15 07:23:22;;;;;;;56.28;33.95;;;14.00;99.90;;;;;;5032330;28;20703;-72
2022/10/15 07:25:47;;;;;;;50.65;33.58;;;14.00;99.90;;;;;;5032343;28;20418;-72
2022/10/15 07:28:13;;;;;;;54.53;33.10;;;14.00;99.90;;;;;;5032628;28;20398;-71
2022/10/15 07:30:38;;;;;;;54.70;34.47;;;14.00;99.90;;;;;;5032206;28;20452;-71
2022/10/15 07:33:05;;;;;;;56.20;34.37;;;14.20;99.90;;;;;;5031652;28;20391;-70
2022/10/15 07:35:30;;;;;;;56.13;35.05;;;14.20;99.90;;;;;;5031852;28;20403;-71
2022/10/15 07:38:00;;;;;;;53.88;34.30;;;14.20;99.90;;;;;;5031407;28;20410;-72
2022/10/15 07:40:26;;;;;;;54.80;35.03;;;14.30;99.90;;;;;;5031809;28;20406;-71
2022/10/15 07:42:55;;;;;;;53.37;34.20;;;14.30;99.90;;;;;;5031339;28;20415;-73
2022/10/15 07:45:21;;;;;;;50.50;33.13;;;14.30;99.90;;;;;;5038534;28;20446;-74
2022/10/15 07:47:47;;;;;;;41.90;29.17;;;14.40;99.90;;;;;;5036834;28;20445;-72
2022/10/15 07:50:12;;;;;;;44.37;27.80;;;14.50;99.90;;;;;;5035447;28;20831;-71
2022/10/15 07:52:38;;;;;;;47.88;27.75;;;14.70;99.90;;;;;;5033824;28;20399;-72
2022/10/15 07:55:04;;;;;;;37.67;27.13;;;14.80;99.90;;;;;;5032613;28;20816;-74
2022/10/15 07:57:30;;;;;;;37.70;26.00;;;14.90;99.90;;;;;;5033793;28;20433;-72
2022/10/15 07:59:55;;;;;;;34.50;24.40;;;15.00;99.90;;;;;;5031954;28;20860;-72
2022/10/15 08:02:21;;;;;;;32.67;23.40;;;15.10;99.90;;;;;;5031566;28;20419;-72
2022/10/15 08:04:47;;;;;;;32.50;22.67;;;15.30;99.90;;;;;;5030727;28;20460;-74
2022/10/15 08:07:12;;;;;;;31.23;21.47;;;15.40;99.90;;;;;;5030399;28;20383;-73
2022/10/15 08:09:38;;;;;;;31.77;21.10;;;15.40;99.90;;;;;;5029889;28;20410;-73
2022/10/15 08:12:05;;;;;;;32.75;23.23;;;15.40;99.90;;;;;;5030104;28;20415;-73
2022/10/15 08:14:35;;;;;;;29.77;21.83;;;15.20;99.90;;;;;;5028562;28;20959;-72
2022/10/15 08:17:02;;;;;;;30.17;21.02;;;15.20;99.90;;;;;;5029577;28;20899;-73
2022/10/15 08:19:27;;;;;;;30.00;21.58;;;15.20;99.90;;;;;;5029754;28;20481;-72
2022/10/15 08:21:53;;;;;;;30.77;20.47;;;15.30;99.90;;;;;;5029047;28;20522;-73
2022/10/15 08:24:19;;;;;;;30.45;19.88;;;15.30;99.90;;;;;;5030777;28;20474;-72
2022/10/15 08:26:45;;;;;;;29.05;20.63;;;15.40;99.90;;;;;;5031742;28;20983;-72
2022/10/15 08:29:11;;;;;;;25.30;17.15;;;15.50;99.90;;;;;;5031441;28;20390;-74
2022/10/15 08:31:37;;;;;;;24.00;18.35;;;15.70;99.90;;;;;;5030218;28;20462;-72
2022/10/15 08:34:03;;;;;;;23.30;16.42;;;15.90;99.90;;;;;;5030921;28;20401;-72
2022/10/15 08:36:29;;;;;;;19.80;15.18;;;16.00;99.90;;;;;;5030664;28;20383;-73
2022/10/15 08:38:54;;;;;;;20.03;15.27;;;16.00;99.90;;;;;;5030699;28;20867;-72
2022/10/15 08:41:39;;;;;;;17.70;14.40;;;15.90;99.90;;;;;;5028976;28;20460;-71
2022/10/15 08:44:11;;;;;;;18.35;13.98;;;16.10;99.90;;;;;;5031400;28;20398;-72
2022/10/15 08:46:43;;;;;;;20.30;14.27;;;16.20;99.90;;;;;;5028127;28;20403;-72
2022/10/15 08:49:31;;;;;;;20.70;12.98;;;16.30;99.90;;;;;;5034457;28;20403;-73
2022/10/15 08:52:07;;;;;;;18.67;11.98;;;16.40;99.90;;;;;;5029117;28;20404;-73
2022/10/15 08:54:34;;;;;;;16.10;10.80;;;16.40;99.90;;;;;;5035897;28;20386;-72
2022/10/15 08:57:23;;;;;;;19.40;11.83;;;16.40;99.00;;;;;;5038452;28;20537;-72
2022/10/15 09:00:02;;;;;;;15.23;10.68;;;16.20;99.60;;;;;;5040179;28;20441;-73
2022/10/15 09:02:37;;;;;;;15.23;10.67;;;16.10;99.90;;;;;;5037939;28;20768;-74
2022/10/15 09:05:25;;;;;;;14.82;10.05;;;16.10;99.90;;;;;;5037951;28;20772;-73
2022/10/15 09:07:59;;;;;;;10.82;8.80;;;16.10;99.90;;;;;;5041061;28;20383;-72
2022/10/15 09:10:49;;;;;;;10.70;9.10;;;16.10;99.90;;;;;;5039256;28;20518;-73
2022/10/15 09:13:24;;;;;;;13.88;8.30;;;16.00;99.90;;;;;;5040079;28;20387;-73
2022/10/15 09:15:59;;;;;;;11.63;7.70;;;16.10;99.90;;;;;;5039642;28;20387;-75
2022/10/15 09:18:29;;;;;;;11.63;7.53;;;16.20;99.90;;;;;;5037429;28;20864;-73
2022/10/15 09:20:56;;;;;;;9.55;7.15;;;16.50;97.00;;;;;;5043258;28;20402;-73
2022/10/15 09:23:25;;;;;;;7.50;6.70;;;16.60;96.00;;;;;;5043676;28;20399;-72
2022/10/15 09:26:02;;;;;;;8.90;6.30;;;16.80;92.10;;;;;;5041221;28;20807;-73
2022/10/15 09:28:48;;;;;;;9.80;6.80;;;16.90;90.50;;;;;;5036279;28;20468;-73
2022/10/15 09:31:19;;;;;;;9.40;6.32;;;17.10;87.70;;;;;;5036236;28;20729;-73
2022/10/15 09:33:53;;;;;;;7.00;5.38;;;17.40;83.00;;;;;;5036289;28;20383;-75
2022/10/15 09:36:41;;;;;;;9.07;5.40;;;17.50;81.80;;;;;;5035811;28;20845;-75
2022/10/15 09:39:31;;;;;;;5.40;4.65;;;17.50;80.40;;;;;;5036198;28;20387;-72
2022/10/15 09:42:02;;;;;;;5.03;3.70;;;17.70;77.80;;;;;;5035753;28;20470;-74
2022/10/15 09:44:36;;;;;;;7.00;4.75;;;17.70;77.30;;;;;;5035838;28;20402;-73
2022/10/15 09:47:14;;;;;;;5.75;4.30;;;17.80;78.90;;;;;;5036596;28;20785;-74
2022/10/15 09:49:41;;;;;;;4.55;3.92;;;17.80;80.20;;;;;;5036975;28;20417;-73
2022/10/15 09:52:23;;;;;;;6.40;4.20;;;17.90;80.00;;;;;;5037371;28;20413;-74
2022/10/15 09:55:33;;;;;;;5.25;4.20;;;18.10;76.80;;;;;;5037420;28;20888;-74
2022/10/15 09:58:28;;;;;;;6.22;3.05;;;18.40;73.10;;;;;;5054640;22;20435;-74
2022/10/15 10:01:00;;;;;;;5.68;3.40;;;18.60;70.20;;;;;;5037263;28;20748;-74
2022/10/15 10:03:30;;;;;;;4.25;3.35;;;18.50;71.00;;;;;;5038053;28;20485;-71
2022/10/15 10:06:11;;;;;;;4.60;3.55;;;18.50;67.80;;;;;;5038104;28;20752;-73
2022/10/15 10:08:48;;;;;;;4.90;2.63;;;18.50;67.20;;;;;;5037577;28;20379;-78
2022/10/15 10:11:13;;;;;;;6.38;2.97;;;18.40;69.00;;;;;;5038006;28;20442;-76
2022/10/15 10:13:44;;;;;;;5.13;2.83;;;18.30;69.30;;;;;;5039422;28;20419;-76
2022/10/15 10:16:11;;;;;;;4.28;3.55;;;18.10;71.30;;;;;;5038731;28;20386;-73
2022/10/15 10:18:37;;;;;;;4.28;3.15;;;18.10;73.90;;;;;;5038579;28;20474;-74
2022/10/15 10:21:25;;;;;;;4.00;2.50;;;18.30;73.90;;;;;;5037602;28;20379;-73
2022/10/15 10:23:51;;;;;;;3.60;2.65;;;18.40;73.10;;;;;;5039317;28;20395;-71
2022/10/15 10:26:17;;;;;;;4.07;3.67;;;18.40;74.20;;;;;;5043035;28;20475;-73
2022/10/15 10:28:54;;;;;;;4.17;2.50;;;18.60;74.40;;;;;;5040390;28;20449;-72
2022/10/15 10:31:41;;;;;;;5.40;2.85;;;18.70;72.80;;;;;;5036452;28;20409;-74
2022/10/15 10:34:16;;;;;;;3.10;2.80;;;18.60;76.00;;;;;;5040350;28;20399;-72
2022/10/15 10:36:41;;;;;;;3.78;2.85;;;18.50;78.50;;;;;;5040213;28;20422;-75
2022/10/15 10:39:13;;;;;;;3.10;2.70;;;18.40;77.30;;;;;;5038182;28;20398;-73
2022/10/15 10:41:58;;;;;;;5.63;3.10;;;18.40;77.30;;;;;;5035910;28;20402;-72
2022/10/15 10:44:39;;;;;;;5.85;2.90;;;18.40;78.00;;;;;;5037429;28;20449;-73
2022/10/15 10:47:15;;;;;;;3.88;3.00;;;18.30;79.10;;;;;;5037104;28;20395;-74
2022/10/15 10:49:46;;;;;;;3.78;2.53;;;18.20;82.90;;;;;;5037659;28;20383;-75
2022/10/15 10:52:41;;;;;;;6.78;2.95;;;18.10;84.40;;;;;;5041067;28;20481;-72
2022/10/15 10:55:17;;;;;;;5.22;2.50;;;18.10;83.50;;;;;;5036612;28;20399;-74
2022/10/15 10:57:53;;;;;;;3.20;2.50;;;18.20;83.00;;;;;;5039532;28;20395;-73
2022/10/15 11:00:40;;;;;;;4.10;2.80;;;18.20;79.90;;;;;;5039914;28;20399;-74
2022/10/15 11:03:28;;;;;;;2.90;2.70;;;18.20;81.20;;;;;;5040763;28;20888;-73
2022/10/15 11:06:11;;;;;;;3.03;2.40;;;18.30;80.10;;;;;;5039949;28;20398;-71
2022/10/15 11:09:09;;;;;;;4.93;3.00;;;18.50;79.80;;;;;;5041312;28;20375;-74
2022/10/15 11:11:56;;;;;;;3.90;2.63;;;18.60;79.40;;;;;;5042269;28;20386;-74
2022/10/15 11:14:42;;;;;;;6.25;3.20;;;18.60;78.40;;;;;;5040533;28;20414;-71
2022/10/15 11:17:16;;;;;;;2.90;2.67;;;18.50;81.20;;;;;;5039669;28;20410;-72
2022/10/15 11:20:12;;;;;;;6.80;4.20;;;18.50;80.10;;;;;;5040365;28;20511;-74
2022/10/15 11:22:52;;;;;;;3.90;3.00;;;18.60;80.30;;;;;;5039251;28;20407;-74
2022/10/15 11:25:24;;;;;;;4.18;3.42;;;18.50;83.30;;;;;;5040678;28;20772;-72
2022/10/15 11:28:16;;;;;;;3.80;3.00;;;18.60;84.30;;;;;;5040336;28;20382;-73
2022/10/15 11:30:48;;;;;;;7.00;3.65;;;18.50;87.20;;;;;;5039022;28;20445;-73
2022/10/15 11:33:50;;;;;;;4.60;3.80;;;18.50;85.50;;;;;;5038326;28;20395;-75
2022/10/15 11:36:42;;;;;;;4.93;3.45;;;18.50;88.20;;;;;;5040018;28;20859;-72
2022/10/15 11:39:32;;;;;;;3.95;3.08;;;18.50;87.70;;;;;;5038379;28;20383;-74
2022/10/15 11:42:20;;;;;;;3.15;2.90;;;18.70;87.00;;;;;;5038032;28;20482;-74
2022/10/15 11:45:04;;;;;;;5.90;2.93;;;18.70;85.20;;;;;;5039597;28;20392;-74
2022/10/15 11:47:35;;;;;;;5.43;2.50;;;18.60;85.50;;;;;;5041970;28;20375;-73
2022/10/15 11:50:00;;;;;;;7.15;3.63;;;18.60;87.90;;;;;;5041940;28;20419;-71
2022/10/15 11:52:54;;;;;;;4.57;2.90;;;18.60;88.80;;;;;;5041401;28;20390;-73
2022/10/15 11:55:25;;;;;;;4.47;3.50;;;18.60;88.20;;;;;;5039002;28;20391;-73
2022/10/15 11:57:57;;;;;;;4.90;3.15;;;18.60;89.30;;;;;;5042251;28;20387;-72
2022/10/15 12:00:34;;;;;;;6.07;3.30;;;18.80;86.50;;;;;;5043071;28;20394;-73
2022/10/15 12:03:21;;;;;;;4.28;3.20;;;18.80;86.90;;;;;;5042144;28;20405;-73
2022/10/15 12:05:55;;;;;;;2.83;2.53;;;18.90;86.70;;;;;;5041440;28;20441;-76
2022/10/15 12:08:25;;;;;;;6.93;3.50;;;18.90;86.10;;;;;;5041927;28;20383;-72
2022/10/15 12:11:16;;;;;;;5.63;2.60;;;19.10;82.80;;;;;;5040525;28;20421;-69
2022/10/15 12:14:14;;;;;;;5.53;3.22;;;19.10;82.80;;;;;;5039708;28;20467;-72
2022/10/15 12:17:10;;;;;;;4.70;2.30;;;19.00;84.40;;;;;;5040573;28;20383;-73
2022/10/15 12:19:47;;;;;;;2.65;2.35;;;19.00;83.70;;;;;;5040657;28;20391;-73
2022/10/15 12:22:36;;;;;;;2.50;2.20;;;19.10;83.20;;;;;;5038484;28;20410;-73
2022/10/15 12:25:03;;;;;;;6.10;3.08;;;19.10;84.30;;;;;;5041618;28;20394;-72
2022/10/15 12:27:35;;;;;;;4.07;3.10;;;19.20;84.00;;;;;;5039852;28;20387;-73
2022/10/15 12:30:06;;;;;;;3.72;2.55;;;19.40;80.80;;;;;;5043785;28;20383;-72
2022/10/15 12:32:45;;;;;;;4.18;2.92;;;19.50;78.80;;;;;;5043154;28;20391;-72
2022/10/15 12:35:13;;;;;;;4.03;3.40;;;19.50;79.50;;;;;;5045227;28;20393;-72
2022/10/15 12:37:41;;;;;;;3.10;2.80;;;19.40;78.50;;;;;;5044896;28;20863;-76
2022/10/15 12:40:28;;;;;;;6.00;2.50;;;19.30;80.00;;;;;;5043139;28;20528;-74
2022/10/15 12:42:59;;;;;;;3.85;2.50;;;19.20;82.30;;;;;;5043054;28;20403;-73
2022/10/15 12:45:38;;;;;;;5.65;3.30;;;19.10;84.00;;;;;;5044768;28;20434;-74
2022/10/15 12:48:03;;;;;;;4.05;2.30;;;19.40;82.50;;;;;;5044594;28;20402;-74
2022/10/15 12:50:31;;;;;;;3.00;2.10;;;19.40;81.80;;;;;;5044521;28;20379;-74
2022/10/15 12:52:58;;;;;;;4.70;1.85;;;19.70;75.90;;;;;;5044304;28;20394;-75
2022/10/15 12:55:29;;;;;;;3.67;1.70;;;20.00;70.40;;;;;;5044564;28;20920;-72